sensor_id;sensor_type;location;lat;lon;timestamp;P1;durP1;ratioP1;P2;durP2;ratioP2
10657;SDS011;5377;43.276;26.930;2023-04-24T00:01:06;9.47;;;7.57;;
10657;SDS011;5377;43.276;26.930;2023-04-24T00:03:35;9.50;;;5.53;;
10657;SDS011;5377;43.276;26.930;2023-04-24T00:06:04;6.73;;;5.20;;
10657;SDS011;5377;43.276;26.930;2023-04-24T00:08:31;11.00;;;7.00;;
10657;SDS011;5377;43.276;26.930;2023-04-24T00:10:58;8.73;;;6.77;;
10657;SDS011;5377;43.276;26.930;2023-04-24T00:13:25;5.53;;;4.57;;
10657;SDS011;5377;43.276;26.930;2023-04-24T00:15:53;7.23;;;5.33;;
10657;SDS011;5377;43.276;26.930;2023-04-24T00:18:20;7.97;;;6.07;;
10657;SDS011;5377;43.276;26.930;2023-04-24T00:20:48;8.33;;;6.20;;
10657;SDS011;5377;43.276;26.930;2023-04-24T00:23:15;8.47;;;6.00;;
10657;SDS011;5377;43.276;26.930;2023-04-24T00:25:42;8.30;;;6.60;;
10657;SDS011;5377;43.276;26.930;2023-04-24T00:28:09;8.77;;;6.50;;
10657;SDS011;5377;43.276;26.930;2023-04-24T00:30:35;7.53;;;6.27;;
10657;SDS011;5377;43.276;26.930;2023-04-24T00:33:02;9.10;;;7.37;;
10657;SDS011;5377;43.276;26.930;2023-04-24T00:35:29;9.70;;;6.70;;
10657;SDS011;5377;43.276;26.930;2023-04-24T00:37:57;8.07;;;6.73;;
10657;SDS011;5377;43.276;26.930;2023-04-24T00:40:24;15.47;;;8.37;;
10657;SDS011;5377;43.276;26.930;2023-04-24T00:42:51;8.20;;;7.37;;
10657;SDS011;5377;43.276;26.930;2023-04-24T00:45:18;9.03;;;7.97;;
10657;SDS011;5377;43.276;26.930;2023-04-24T00:47:45;7.23;;;6.50;;
10657;SDS011;5377;43.276;26.930;2023-04-24T00:50:14;11.03;;;6.57;;
10657;SDS011;5377;43.276;26.930;2023-04-24T00:52:41;9.33;;;6.53;;
10657;SDS011;5377;43.276;26.930;2023-04-24T00:55:10;8.77;;;6.67;;
10657;SDS011;5377;43.276;26.930;2023-04-24T00:57:36;8.67;;;6.90;;
10657;SDS011;5377;43.276;26.930;2023-04-24T01:00:04;10.60;;;7.60;;
10657;SDS011;5377;43.276;26.930;2023-04-24T01:02:35;8.90;;;8.10;;
10657;SDS011;5377;43.276;26.930;2023-04-24T01:05:05;7.10;;;6.40;;
10657;SDS011;5377;43.276;26.930;2023-04-24T01:07:33;7.90;;;6.50;;
10657;SDS011;5377;43.276;26.930;2023-04-24T01:10:00;9.27;;;6.20;;
10657;SDS011;5377;43.276;26.930;2023-04-24T01:12:29;8.20;;;6.87;;
10657;SDS011;5377;43.276;26.930;2023-04-24T01:14:56;10.27;;;6.30;;
10657;SDS011;5377;43.276;26.930;2023-04-24T01:17:23;11.93;;;6.33;;
10657;SDS011;5377;43.276;26.930;2023-04-24T01:19:50;6.80;;;6.03;;
10657;SDS011;5377;43.276;26.930;2023-04-24T01:22:20;9.40;;;6.60;;
10657;SDS011;5377;43.276;26.930;2023-04-24T01:24:46;8.40;;;6.57;;
10657;SDS011;5377;43.276;26.930;2023-04-24T01:27:14;14.60;;;7.57;;
10657;SDS011;5377;43.276;26.930;2023-04-24T01:29:41;11.57;;;7.30;;
10657;SDS011;5377;43.276;26.930;2023-04-24T01:32:08;12.73;;;7.83;;
10657;SDS011;5377;43.276;26.930;2023-04-24T01:34:35;11.97;;;7.10;;
10657;SDS011;5377;43.276;26.930;2023-04-24T01:37:03;12.77;;;7.17;;
10657;SDS011;5377;43.276;26.930;2023-04-24T01:39:32;10.83;;;8.00;;
10657;SDS011;5377;43.276;26.930;2023-04-24T01:41:59;11.27;;;7.03;;
10657;SDS011;5377;43.276;26.930;2023-04-24T01:44:27;10.60;;;8.70;;
10657;SDS011;5377;43.276;26.930;2023-04-24T01:46:54;12.03;;;7.53;;
10657;SDS011;5377;43.276;26.930;2023-04-24T01:49:21;7.80;;;5.97;;
10657;SDS011;5377;43.276;26.930;2023-04-24T01:51:48;7.63;;;6.20;;
10657;SDS011;5377;43.276;26.930;2023-04-24T01:54:14;8.07;;;6.67;;
10657;SDS011;5377;43.276;26.930;2023-04-24T01:56:43;10.73;;;6.87;;
10657;SDS011;5377;43.276;26.930;2023-04-24T01:59:10;7.73;;;6.47;;
10657;SDS011;5377;43.276;26.930;2023-04-24T02:01:38;9.50;;;6.50;;
10657;SDS011;5377;43.276;26.930;2023-04-24T02:04:05;10.93;;;6.20;;
10657;SDS011;5377;43.276;26.930;2023-04-24T02:06:33;14.20;;;6.13;;
10657;SDS011;5377;43.276;26.930;2023-04-24T02:09:00;9.57;;;6.90;;
10657;SDS011;5377;43.276;26.930;2023-04-24T02:11:28;10.20;;;6.83;;
10657;SDS011;5377;43.276;26.930;2023-04-24T02:13:56;8.20;;;7.10;;
10657;SDS011;5377;43.276;26.930;2023-04-24T02:16:23;6.93;;;5.90;;
10657;SDS011;5377;43.276;26.930;2023-04-24T02:18:50;7.33;;;6.53;;
10657;SDS011;5377;43.276;26.930;2023-04-24T02:21:17;8.50;;;6.20;;
10657;SDS011;5377;43.276;26.930;2023-04-24T02:23:43;8.07;;;5.83;;
10657;SDS011;5377;43.276;26.930;2023-04-24T02:26:10;6.80;;;6.00;;
10657;SDS011;5377;43.276;26.930;2023-04-24T02:28:37;12.80;;;7.23;;
10657;SDS011;5377;43.276;26.930;2023-04-24T02:31:05;11.93;;;6.20;;
10657;SDS011;5377;43.276;26.930;2023-04-24T02:33:32;10.60;;;6.80;;
10657;SDS011;5377;43.276;26.930;2023-04-24T02:36:00;8.43;;;6.50;;
10657;SDS011;5377;43.276;26.930;2023-04-24T02:38:27;10.30;;;6.57;;
10657;SDS011;5377;43.276;26.930;2023-04-24T02:40:54;10.47;;;6.97;;
10657;SDS011;5377;43.276;26.930;2023-04-24T02:43:21;7.83;;;6.60;;
10657;SDS011;5377;43.276;26.930;2023-04-24T02:45:48;11.30;;;6.87;;
10657;SDS011;5377;43.276;26.930;2023-04-24T02:48:16;8.50;;;6.33;;
10657;SDS011;5377;43.276;26.930;2023-04-24T02:50:43;10.17;;;7.47;;
10657;SDS011;5377;43.276;26.930;2023-04-24T02:53:10;11.70;;;7.37;;
10657;SDS011;5377;43.276;26.930;2023-04-24T02:55:37;14.60;;;8.03;;
10657;SDS011;5377;43.276;26.930;2023-04-24T02:58:04;12.50;;;7.57;;
10657;SDS011;5377;43.276;26.930;2023-04-24T03:00:31;11.77;;;8.30;;
10657;SDS011;5377;43.276;26.930;2023-04-24T03:02:58;13.07;;;9.27;;
10657;SDS011;5377;43.276;26.930;2023-04-24T03:05:26;18.30;;;10.83;;
10657;SDS011;5377;43.276;26.930;2023-04-24T03:07:53;15.20;;;10.07;;
10657;SDS011;5377;43.276;26.930;2023-04-24T03:10:20;14.57;;;10.13;;
10657;SDS011;5377;43.276;26.930;2023-04-24T03:12:47;11.57;;;8.17;;
10657;SDS011;5377;43.276;26.930;2023-04-24T03:15:15;15.67;;;10.73;;
10657;SDS011;5377;43.276;26.930;2023-04-24T03:17:41;17.87;;;10.93;;
10657;SDS011;5377;43.276;26.930;2023-04-24T03:20:08;18.03;;;12.47;;
10657;SDS011;5377;43.276;26.930;2023-04-24T03:22:37;15.43;;;10.37;;
10657;SDS011;5377;43.276;26.930;2023-04-24T03:25:04;17.83;;;11.00;;
10657;SDS011;5377;43.276;26.930;2023-04-24T03:27:33;16.00;;;10.30;;
10657;SDS011;5377;43.276;26.930;2023-04-24T03:30:00;19.37;;;10.90;;
10657;SDS011;5377;43.276;26.930;2023-04-24T03:32:27;18.50;;;12.20;;
10657;SDS011;5377;43.276;26.930;2023-04-24T03:34:54;17.70;;;14.07;;
10657;SDS011;5377;43.276;26.930;2023-04-24T03:37:20;19.53;;;13.40;;
10657;SDS011;5377;43.276;26.930;2023-04-24T03:39:49;22.13;;;14.67;;
10657;SDS011;5377;43.276;26.930;2023-04-24T03:42:15;21.77;;;14.73;;
10657;SDS011;5377;43.276;26.930;2023-04-24T03:44:42;24.07;;;13.33;;
10657;SDS011;5377;43.276;26.930;2023-04-24T03:47:09;18.10;;;13.93;;
10657;SDS011;5377;43.276;26.930;2023-04-24T03:49:36;22.50;;;15.63;;
10657;SDS011;5377;43.276;26.930;2023-04-24T03:52:03;24.83;;;17.83;;
10657;SDS011;5377;43.276;26.930;2023-04-24T03:54:29;23.77;;;15.93;;
10657;SDS011;5377;43.276;26.930;2023-04-24T03:56:57;22.40;;;16.70;;
10657;SDS011;5377;43.276;26.930;2023-04-24T03:59:25;27.60;;;18.20;;
10657;SDS011;5377;43.276;26.930;2023-04-24T04:01:51;23.20;;;16.50;;
10657;SDS011;5377;43.276;26.930;2023-04-24T04:04:18;27.57;;;15.93;;
10657;SDS011;5377;43.276;26.930;2023-04-24T04:06:45;22.73;;;12.47;;
10657;SDS011;5377;43.276;26.930;2023-04-24T04:09:12;19.60;;;13.30;;
10657;SDS011;5377;43.276;26.930;2023-04-24T04:11:39;23.47;;;12.57;;
10657;SDS011;5377;43.276;26.930;2023-04-24T04:14:07;22.53;;;13.07;;
10657;SDS011;5377;43.276;26.930;2023-04-24T04:16:34;21.23;;;13.70;;
10657;SDS011;5377;43.276;26.930;2023-04-24T04:19:02;21.33;;;15.10;;
10657;SDS011;5377;43.276;26.930;2023-04-24T04:21:29;23.33;;;12.37;;
10657;SDS011;5377;43.276;26.930;2023-04-24T04:23:56;17.07;;;12.93;;
10657;SDS011;5377;43.276;26.930;2023-04-24T04:26:23;17.37;;;12.70;;
10657;SDS011;5377;43.276;26.930;2023-04-24T04:28:50;19.60;;;11.63;;
10657;SDS011;5377;43.276;26.930;2023-04-24T04:31:19;20.73;;;11.87;;
10657;SDS011;5377;43.276;26.930;2023-04-24T04:33:46;13.80;;;12.00;;
10657;SDS011;5377;43.276;26.930;2023-04-24T04:36:12;16.20;;;11.30;;
10657;SDS011;5377;43.276;26.930;2023-04-24T04:38:39;17.20;;;12.10;;
10657;SDS011;5377;43.276;26.930;2023-04-24T04:41:08;25.53;;;12.83;;
10657;SDS011;5377;43.276;26.930;2023-04-24T04:43:34;22.10;;;12.10;;
10657;SDS011;5377;43.276;26.930;2023-04-24T04:46:01;17.57;;;10.20;;
10657;SDS011;5377;43.276;26.930;2023-04-24T04:48:30;18.23;;;10.07;;
10657;SDS011;5377;43.276;26.930;2023-04-24T04:50:57;24.23;;;11.13;;
10657;SDS011;5377;43.276;26.930;2023-04-24T04:53:24;21.10;;;9.87;;
10657;SDS011;5377;43.276;26.930;2023-04-24T04:55:51;19.17;;;9.60;;
10657;SDS011;5377;43.276;26.930;2023-04-24T04:58:18;24.70;;;10.33;;
10657;SDS011;5377;43.276;26.930;2023-04-24T05:00:45;14.80;;;8.17;;
10657;SDS011;5377;43.276;26.930;2023-04-24T05:03:11;20.43;;;8.97;;
10657;SDS011;5377;43.276;26.930;2023-04-24T05:05:40;18.10;;;9.40;;
10657;SDS011;5377;43.276;26.930;2023-04-24T05:08:06;14.93;;;10.77;;
10657;SDS011;5377;43.276;26.930;2023-04-24T05:10:34;17.08;;;9.88;;
10657;SDS011;5377;43.276;26.930;2023-04-24T05:13:02;19.17;;;9.98;;
10657;SDS011;5377;43.276;26.930;2023-04-24T05:15:28;19.67;;;10.48;;
10657;SDS011;5377;43.276;26.930;2023-04-24T05:17:55;21.35;;;10.07;;
10657;SDS011;5377;43.276;26.930;2023-04-24T05:20:22;17.92;;;9.63;;
10657;SDS011;5377;43.276;26.930;2023-04-24T05:22:51;14.55;;;8.88;;
10657;SDS011;5377;43.276;26.930;2023-04-24T05:25:18;18.58;;;9.98;;
10657;SDS011;5377;43.276;26.930;2023-04-24T05:27:44;15.10;;;8.80;;
10657;SDS011;5377;43.276;26.930;2023-04-24T05:30:12;13.85;;;8.75;;
10657;SDS011;5377;43.276;26.930;2023-04-24T05:32:39;12.40;;;7.85;;
10657;SDS011;5377;43.276;26.930;2023-04-24T05:35:06;10.82;;;7.93;;
10657;SDS011;5377;43.276;26.930;2023-04-24T05:37:33;9.27;;;6.97;;
10657;SDS011;5377;43.276;26.930;2023-04-24T05:40:01;14.52;;;7.07;;
10657;SDS011;5377;43.276;26.930;2023-04-24T05:42:30;11.88;;;7.78;;
10657;SDS011;5377;43.276;26.930;2023-04-24T05:44:57;8.70;;;7.53;;
10657;SDS011;5377;43.276;26.930;2023-04-24T05:47:24;13.07;;;6.88;;
10657;SDS011;5377;43.276;26.930;2023-04-24T05:49:51;16.65;;;6.35;;
10657;SDS011;5377;43.276;26.930;2023-04-24T05:52:18;12.35;;;6.85;;
10657;SDS011;5377;43.276;26.930;2023-04-24T05:54:45;17.58;;;8.27;;
10657;SDS011;5377;43.276;26.930;2023-04-24T05:57:13;8.07;;;5.97;;
10657;SDS011;5377;43.276;26.930;2023-04-24T05:59:40;16.08;;;6.53;;
10657;SDS011;5377;43.276;26.930;2023-04-24T06:02:07;8.75;;;5.85;;
10657;SDS011;5377;43.276;26.930;2023-04-24T06:04:34;13.30;;;6.50;;
10657;SDS011;5377;43.276;26.930;2023-04-24T06:07:00;16.92;;;5.18;;
10657;SDS011;5377;43.276;26.930;2023-04-24T06:09:27;11.75;;;5.22;;
10657;SDS011;5377;43.276;26.930;2023-04-24T06:11:54;8.70;;;5.80;;
10657;SDS011;5377;43.276;26.930;2023-04-24T06:14:23;6.97;;;5.20;;
10657;SDS011;5377;43.276;26.930;2023-04-24T06:16:49;7.75;;;5.90;;
10657;SDS011;5377;43.276;26.930;2023-04-24T06:19:16;10.73;;;5.45;;
10657;SDS011;5377;43.276;26.930;2023-04-24T06:21:43;8.65;;;5.47;;
10657;SDS011;5377;43.276;26.930;2023-04-24T06:24:10;8.95;;;4.78;;
10657;SDS011;5377;43.276;26.930;2023-04-24T06:26:37;5.90;;;3.80;;
10657;SDS011;5377;43.276;26.930;2023-04-24T06:29:03;10.18;;;4.63;;
10657;SDS011;5377;43.276;26.930;2023-04-24T06:31:32;8.13;;;3.78;;
10657;SDS011;5377;43.276;26.930;2023-04-24T06:34:01;6.05;;;3.40;;
10657;SDS011;5377;43.276;26.930;2023-04-24T06:36:28;14.80;;;4.30;;
10657;SDS011;5377;43.276;26.930;2023-04-24T06:38:56;4.88;;;3.88;;
10657;SDS011;5377;43.276;26.930;2023-04-24T06:41:23;6.80;;;3.50;;
10657;SDS011;5377;43.276;26.930;2023-04-24T06:43:50;6.55;;;3.40;;
10657;SDS011;5377;43.276;26.930;2023-04-24T06:46:17;4.32;;;3.22;;
10657;SDS011;5377;43.276;26.930;2023-04-24T06:48:45;5.00;;;3.20;;
10657;SDS011;5377;43.276;26.930;2023-04-24T06:51:12;7.32;;;3.53;;
10657;SDS011;5377;43.276;26.930;2023-04-24T06:53:38;12.98;;;3.83;;
10657;SDS011;5377;43.276;26.930;2023-04-24T06:56:05;3.28;;;2.97;;
10657;SDS011;5377;43.276;26.930;2023-04-24T06:58:32;3.50;;;2.53;;
10657;SDS011;5377;43.276;26.930;2023-04-24T07:00:59;4.32;;;3.20;;
10657;SDS011;5377;43.276;26.930;2023-04-24T07:03:25;3.80;;;2.90;;
10657;SDS011;5377;43.276;26.930;2023-04-24T07:05:53;3.80;;;3.08;;
10657;SDS011;5377;43.276;26.930;2023-04-24T07:08:21;5.22;;;3.17;;
10657;SDS011;5377;43.276;26.930;2023-04-24T07:10:48;6.53;;;2.65;;
10657;SDS011;5377;43.276;26.930;2023-04-24T07:13:15;3.03;;;2.83;;
10657;SDS011;5377;43.276;26.930;2023-04-24T07:15:42;5.03;;;3.05;;
10657;SDS011;5377;43.276;26.930;2023-04-24T07:18:09;4.80;;;3.30;;
10657;SDS011;5377;43.276;26.930;2023-04-24T07:20:36;4.00;;;2.35;;
10657;SDS011;5377;43.276;26.930;2023-04-24T07:23:04;5.70;;;2.35;;
10657;SDS011;5377;43.276;26.930;2023-04-24T07:25:31;8.73;;;4.82;;
10657;SDS011;5377;43.276;26.930;2023-04-24T07:27:58;7.10;;;2.80;;
10657;SDS011;5377;43.276;26.930;2023-04-24T07:30:24;4.65;;;2.58;;
10657;SDS011;5377;43.276;26.930;2023-04-24T07:32:53;3.85;;;2.63;;
10657;SDS011;5377;43.276;26.930;2023-04-24T07:35:20;5.32;;;2.20;;
10657;SDS011;5377;43.276;26.930;2023-04-24T07:37:47;2.88;;;1.90;;
10657;SDS011;5377;43.276;26.930;2023-04-24T07:40:15;3.22;;;2.00;;
10657;SDS011;5377;43.276;26.930;2023-04-24T07:42:42;5.55;;;2.50;;
10657;SDS011;5377;43.276;26.930;2023-04-24T07:45:10;10.02;;;2.40;;
10657;SDS011;5377;43.276;26.930;2023-04-24T07:47:36;5.20;;;1.95;;
10657;SDS011;5377;43.276;26.930;2023-04-24T07:50:05;1.70;;;1.58;;
10657;SDS011;5377;43.276;26.930;2023-04-24T07:52:32;7.88;;;2.40;;
10657;SDS011;5377;43.276;26.930;2023-04-24T07:54:59;5.25;;;1.83;;
10657;SDS011;5377;43.276;26.930;2023-04-24T07:57:28;4.40;;;1.77;;
10657;SDS011;5377;43.276;26.930;2023-04-24T07:59:55;3.50;;;1.88;;
10657;SDS011;5377;43.276;26.930;2023-04-24T08:02:22;2.17;;;1.92;;
10657;SDS011;5377;43.276;26.930;2023-04-24T08:04:51;3.05;;;1.42;;
10657;SDS011;5377;43.276;26.930;2023-04-24T08:07:19;5.22;;;1.67;;
10657;SDS011;5377;43.276;26.930;2023-04-24T08:09:45;3.20;;;1.27;;
10657;SDS011;5377;43.276;26.930;2023-04-24T08:12:12;4.18;;;1.70;;
10657;SDS011;5377;43.276;26.930;2023-04-24T08:14:40;5.07;;;2.17;;
10657;SDS011;5377;43.276;26.930;2023-04-24T08:17:07;3.88;;;1.65;;
10657;SDS011;5377;43.276;26.930;2023-04-24T08:19:34;2.17;;;1.92;;
10657;SDS011;5377;43.276;26.930;2023-04-24T08:22:01;2.88;;;1.67;;
10657;SDS011;5377;43.276;26.930;2023-04-24T08:24:29;2.92;;;1.38;;
10657;SDS011;5377;43.276;26.930;2023-04-24T08:26:56;4.35;;;1.48;;
10657;SDS011;5377;43.276;26.930;2023-04-24T08:29:23;2.00;;;1.80;;
10657;SDS011;5377;43.276;26.930;2023-04-24T08:31:51;2.72;;;1.42;;
10657;SDS011;5377;43.276;26.930;2023-04-24T08:34:19;2.53;;;1.20;;
10657;SDS011;5377;43.276;26.930;2023-04-24T08:36:46;2.67;;;1.77;;
10657;SDS011;5377;43.276;26.930;2023-04-24T08:39:13;4.68;;;1.70;;
10657;SDS011;5377;43.276;26.930;2023-04-24T08:41:41;3.92;;;1.77;;
10657;SDS011;5377;43.276;26.930;2023-04-24T08:44:10;2.92;;;1.50;;
10657;SDS011;5377;43.276;26.930;2023-04-24T08:46:37;5.22;;;1.70;;
10657;SDS011;5377;43.276;26.930;2023-04-24T08:49:07;2.20;;;1.38;;
10657;SDS011;5377;43.276;26.930;2023-04-24T08:51:34;4.38;;;1.80;;
10657;SDS011;5377;43.276;26.930;2023-04-24T08:54:04;2.72;;;1.40;;
10657;SDS011;5377;43.276;26.930;2023-04-24T08:56:32;7.15;;;2.28;;
10657;SDS011;5377;43.276;26.930;2023-04-24T08:59:00;4.32;;;2.25;;
10657;SDS011;5377;43.276;26.930;2023-04-24T09:01:27;2.78;;;1.35;;
10657;SDS011;5377;43.276;26.930;2023-04-24T09:03:55;2.20;;;1.50;;
10657;SDS011;5377;43.276;26.930;2023-04-24T09:06:24;4.35;;;1.58;;
10657;SDS011;5377;43.276;26.930;2023-04-24T09:08:52;4.30;;;1.55;;
10657;SDS011;5377;43.276;26.930;2023-04-24T09:11:21;4.18;;;1.35;;
10657;SDS011;5377;43.276;26.930;2023-04-24T09:13:49;3.25;;;1.52;;
10657;SDS011;5377;43.276;26.930;2023-04-24T09:16:17;2.28;;;1.23;;
10657;SDS011;5377;43.276;26.930;2023-04-24T09:18:45;1.48;;;1.38;;
10657;SDS011;5377;43.276;26.930;2023-04-24T09:21:12;2.08;;;1.02;;
10657;SDS011;5377;43.276;26.930;2023-04-24T09:23:41;2.50;;;1.48;;
10657;SDS011;5377;43.276;26.930;2023-04-24T09:26:08;5.03;;;1.95;;
10657;SDS011;5377;43.276;26.930;2023-04-24T09:28:37;1.58;;;1.20;;
10657;SDS011;5377;43.276;26.930;2023-04-24T09:31:05;1.98;;;1.13;;
10657;SDS011;5377;43.276;26.930;2023-04-24T09:33:33;7.10;;;1.33;;
10657;SDS011;5377;43.276;26.930;2023-04-24T09:36:00;3.08;;;1.40;;
10657;SDS011;5377;43.276;26.930;2023-04-24T09:38:31;1.70;;;1.40;;
10657;SDS011;5377;43.276;26.930;2023-04-24T09:41:00;3.92;;;1.67;;
10657;SDS011;5377;43.276;26.930;2023-04-24T09:43:29;6.78;;;2.00;;
10657;SDS011;5377;43.276;26.930;2023-04-24T09:45:56;1.15;;;0.80;;
10657;SDS011;5377;43.276;26.930;2023-04-24T09:48:30;3.25;;;1.75;;
10657;SDS011;5377;43.276;26.930;2023-04-24T09:50:57;4.78;;;1.98;;
10657;SDS011;5377;43.276;26.930;2023-04-24T09:53:24;2.38;;;1.60;;
10657;SDS011;5377;43.276;26.930;2023-04-24T09:55:51;2.53;;;1.42;;
10657;SDS011;5377;43.276;26.930;2023-04-24T09:58:19;4.25;;;1.50;;
10657;SDS011;5377;43.276;26.930;2023-04-24T10:00:53;2.50;;;1.70;;
10657;SDS011;5377;43.276;26.930;2023-04-24T10:03:20;2.42;;;1.85;;
10657;SDS011;5377;43.276;26.930;2023-04-24T10:05:51;2.40;;;1.75;;
10657;SDS011;5377;43.276;26.930;2023-04-24T10:08:18;2.10;;;1.40;;
10657;SDS011;5377;43.276;26.930;2023-04-24T10:10:45;1.77;;;1.40;;
10657;SDS011;5377;43.276;26.930;2023-04-24T10:13:13;3.67;;;1.40;;
10657;SDS011;5377;43.276;26.930;2023-04-24T10:15:42;2.88;;;1.77;;
10657;SDS011;5377;43.276;26.930;2023-04-24T10:18:10;1.67;;;1.58;;
10657;SDS011;5377;43.276;26.930;2023-04-24T10:20:38;3.97;;;1.25;;
10657;SDS011;5377;43.276;26.930;2023-04-24T10:23:06;4.60;;;1.45;;
10657;SDS011;5377;43.276;26.930;2023-04-24T10:25:33;7.22;;;1.63;;
10657;SDS011;5377;43.276;26.930;2023-04-24T10:28:01;5.10;;;1.63;;
10657;SDS011;5377;43.276;26.930;2023-04-24T10:30:29;2.10;;;1.17;;
10657;SDS011;5377;43.276;26.930;2023-04-24T10:33:01;3.30;;;1.38;;
10657;SDS011;5377;43.276;26.930;2023-04-24T10:35:30;2.22;;;1.50;;
10657;SDS011;5377;43.276;26.930;2023-04-24T10:37:59;2.60;;;1.40;;
10657;SDS011;5377;43.276;26.930;2023-04-24T10:40:30;2.40;;;1.85;;
10657;SDS011;5377;43.276;26.930;2023-04-24T10:42:58;9.25;;;2.42;;
10657;SDS011;5377;43.276;26.930;2023-04-24T10:45:26;3.42;;;1.73;;
10657;SDS011;5377;43.276;26.930;2023-04-24T10:47:53;2.70;;;1.90;;
10657;SDS011;5377;43.276;26.930;2023-04-24T10:50:24;5.53;;;1.65;;
10657;SDS011;5377;43.276;26.930;2023-04-24T10:52:52;2.28;;;1.88;;
10657;SDS011;5377;43.276;26.930;2023-04-24T10:55:39;1.98;;;1.70;;
10657;SDS011;5377;43.276;26.930;2023-04-24T10:58:07;2.05;;;1.77;;
10657;SDS011;5377;43.276;26.930;2023-04-24T11:00:36;2.38;;;1.83;;
10657;SDS011;5377;43.276;26.930;2023-04-24T11:03:04;3.53;;;1.58;;
10657;SDS011;5377;43.276;26.930;2023-04-24T11:08:24;5.32;;;1.45;;
10657;SDS011;5377;43.276;26.930;2023-04-24T11:11:02;7.20;;;1.85;;
10657;SDS011;5377;43.276;26.930;2023-04-24T11:16:33;3.83;;;1.92;;
10657;SDS011;5377;43.276;26.930;2023-04-24T11:19:03;3.80;;;2.20;;
10657;SDS011;5377;43.276;26.930;2023-04-24T11:21:38;1.83;;;1.58;;
10657;SDS011;5377;43.276;26.930;2023-04-24T11:24:24;2.13;;;1.63;;
10657;SDS011;5377;43.276;26.930;2023-04-24T11:26:59;4.55;;;1.85;;
10657;SDS011;5377;43.276;26.930;2023-04-24T11:29:42;4.63;;;1.80;;
10657;SDS011;5377;43.276;26.930;2023-04-24T11:32:14;9.63;;;2.17;;
10657;SDS011;5377;43.276;26.930;2023-04-24T11:34:48;3.67;;;1.60;;
10657;SDS011;5377;43.276;26.930;2023-04-24T11:37:17;5.05;;;2.63;;
10657;SDS011;5377;43.276;26.930;2023-04-24T11:39:44;1.65;;;1.55;;
10657;SDS011;5377;43.276;26.930;2023-04-24T11:42:12;3.17;;;2.08;;
10657;SDS011;5377;43.276;26.930;2023-04-24T11:44:41;2.17;;;1.45;;
10657;SDS011;5377;43.276;26.930;2023-04-24T11:47:08;1.90;;;1.35;;
10657;SDS011;5377;43.276;26.930;2023-04-24T11:49:36;5.22;;;1.50;;
10657;SDS011;5377;43.276;26.930;2023-04-24T11:52:03;4.60;;;2.30;;
10657;SDS011;5377;43.276;26.930;2023-04-24T11:54:32;3.83;;;1.85;;
10657;SDS011;5377;43.276;26.930;2023-04-24T11:56:59;2.15;;;2.05;;
10657;SDS011;5377;43.276;26.930;2023-04-24T11:59:35;3.58;;;2.33;;
10657;SDS011;5377;43.276;26.930;2023-04-24T12:02:02;6.43;;;2.17;;
10657;SDS011;5377;43.276;26.930;2023-04-24T12:04:37;5.03;;;2.13;;
10657;SDS011;5377;43.276;26.930;2023-04-24T12:07:05;3.78;;;2.83;;
10657;SDS011;5377;43.276;26.930;2023-04-24T12:09:41;8.30;;;4.57;;
10657;SDS011;5377;43.276;26.930;2023-04-24T12:12:10;3.90;;;2.13;;
10657;SDS011;5377;43.276;26.930;2023-04-24T12:14:44;4.32;;;3.13;;
10657;SDS011;5377;43.276;26.930;2023-04-24T12:17:14;2.13;;;1.80;;
10657;SDS011;5377;43.276;26.930;2023-04-24T12:19:44;4.82;;;3.13;;
10657;SDS011;5377;43.276;26.930;2023-04-24T12:22:12;3.80;;;2.85;;
10657;SDS011;5377;43.276;26.930;2023-04-24T12:27:26;4.63;;;3.28;;
10657;SDS011;5377;43.276;26.930;2023-04-24T12:29:53;5.30;;;3.33;;
10657;SDS011;5377;43.276;26.930;2023-04-24T12:32:21;4.93;;;2.95;;
10657;SDS011;5377;43.276;26.930;2023-04-24T12:34:50;3.70;;;2.67;;
10657;SDS011;5377;43.276;26.930;2023-04-24T12:37:17;3.47;;;2.00;;
10657;SDS011;5377;43.276;26.930;2023-04-24T12:39:46;3.70;;;3.40;;
10657;SDS011;5377;43.276;26.930;2023-04-24T12:42:26;3.25;;;2.03;;
10657;SDS011;5377;43.276;26.930;2023-04-24T12:44:57;2.30;;;1.98;;
10657;SDS011;5377;43.276;26.930;2023-04-24T12:47:26;1.88;;;1.77;;
10657;SDS011;5377;43.276;26.930;2023-04-24T12:49:53;2.28;;;1.48;;
10657;SDS011;5377;43.276;26.930;2023-04-24T12:52:20;2.17;;;2.08;;
10657;SDS011;5377;43.276;26.930;2023-04-24T12:54:48;3.47;;;1.83;;
10657;SDS011;5377;43.276;26.930;2023-04-24T12:57:17;2.85;;;2.05;;
10657;SDS011;5377;43.276;26.930;2023-04-24T12:59:44;4.22;;;2.03;;
10657;SDS011;5377;43.276;26.930;2023-04-24T13:02:11;2.92;;;1.65;;
10657;SDS011;5377;43.276;26.930;2023-04-24T13:04:38;4.00;;;1.90;;
10657;SDS011;5377;43.276;26.930;2023-04-24T13:07:05;3.17;;;1.90;;
10657;SDS011;5377;43.276;26.930;2023-04-24T13:09:33;2.72;;;1.92;;
10657;SDS011;5377;43.276;26.930;2023-04-24T13:12:00;5.03;;;1.95;;
10657;SDS011;5377;43.276;26.930;2023-04-24T13:14:29;4.00;;;1.73;;
10657;SDS011;5377;43.276;26.930;2023-04-24T13:16:55;4.18;;;2.20;;
10657;SDS011;5377;43.276;26.930;2023-04-24T13:19:23;3.97;;;2.30;;
10657;SDS011;5377;43.276;26.930;2023-04-24T13:21:50;2.75;;;2.28;;
10657;SDS011;5377;43.276;26.930;2023-04-24T13:24:17;4.28;;;1.90;;
10657;SDS011;5377;43.276;26.930;2023-04-24T13:26:44;2.83;;;1.90;;
10657;SDS011;5377;43.276;26.930;2023-04-24T13:29:11;2.65;;;2.15;;
10657;SDS011;5377;43.276;26.930;2023-04-24T13:31:39;3.45;;;2.45;;
10657;SDS011;5377;43.276;26.930;2023-04-24T13:34:06;4.10;;;1.70;;
10657;SDS011;5377;43.276;26.930;2023-04-24T13:36:32;2.63;;;1.73;;
10657;SDS011;5377;43.276;26.930;2023-04-24T13:39:00;4.70;;;2.63;;
10657;SDS011;5377;43.276;26.930;2023-04-24T13:41:29;2.65;;;2.42;;
10657;SDS011;5377;43.276;26.930;2023-04-24T13:43:56;7.53;;;2.53;;
10657;SDS011;5377;43.276;26.930;2023-04-24T13:46:22;4.95;;;2.47;;
10657;SDS011;5377;43.276;26.930;2023-04-24T13:48:51;1.80;;;1.70;;
10657;SDS011;5377;43.276;26.930;2023-04-24T13:51:17;5.90;;;2.38;;
10657;SDS011;5377;43.276;26.930;2023-04-24T13:53:44;7.22;;;2.35;;
10657;SDS011;5377;43.276;26.930;2023-04-24T13:56:11;5.43;;;2.22;;
10657;SDS011;5377;43.276;26.930;2023-04-24T13:58:39;6.70;;;2.20;;
10657;SDS011;5377;43.276;26.930;2023-04-24T14:01:06;6.68;;;2.80;;
10657;SDS011;5377;43.276;26.930;2023-04-24T14:03:33;5.18;;;2.13;;
10657;SDS011;5377;43.276;26.930;2023-04-24T14:06:01;5.53;;;2.28;;
10657;SDS011;5377;43.276;26.930;2023-04-24T14:08:28;6.75;;;2.25;;
10657;SDS011;5377;43.276;26.930;2023-04-24T14:10:54;6.63;;;2.72;;
10657;SDS011;5377;43.276;26.930;2023-04-24T14:13:21;1.70;;;1.60;;
10657;SDS011;5377;43.276;26.930;2023-04-24T14:15:48;4.95;;;1.88;;
10657;SDS011;5377;43.276;26.930;2023-04-24T14:18:15;8.65;;;2.28;;
10657;SDS011;5377;43.276;26.930;2023-04-24T14:20:42;3.35;;;2.08;;
10657;SDS011;5377;43.276;26.930;2023-04-24T14:23:10;3.25;;;1.75;;
10657;SDS011;5377;43.276;26.930;2023-04-24T14:25:37;4.40;;;2.60;;
10657;SDS011;5377;43.276;26.930;2023-04-24T14:28:05;5.72;;;2.30;;
10657;SDS011;5377;43.276;26.930;2023-04-24T14:30:32;10.50;;;2.80;;
10657;SDS011;5377;43.276;26.930;2023-04-24T14:32:59;5.38;;;2.20;;
10657;SDS011;5377;43.276;26.930;2023-04-24T14:35:25;9.45;;;3.92;;
10657;SDS011;5377;43.276;26.930;2023-04-24T14:37:54;8.07;;;3.20;;
10657;SDS011;5377;43.276;26.930;2023-04-24T14:40:22;2.72;;;2.13;;
10657;SDS011;5377;43.276;26.930;2023-04-24T14:42:49;6.25;;;2.50;;
10657;SDS011;5377;43.276;26.930;2023-04-24T14:45:16;4.47;;;2.17;;
10657;SDS011;5377;43.276;26.930;2023-04-24T14:47:44;8.10;;;3.20;;
10657;SDS011;5377;43.276;26.930;2023-04-24T14:50:11;5.10;;;2.78;;
10657;SDS011;5377;43.276;26.930;2023-04-24T14:52:38;3.92;;;2.65;;
10657;SDS011;5377;43.276;26.930;2023-04-24T14:55:05;8.48;;;2.50;;